createdAt,value
2022-10-06T00:02:39.551Z,101374.56
2022-10-06T00:05:42.637Z,101366.53
2022-10-06T00:08:46.210Z,101370.97
2022-10-06T00:11:50.178Z,101367.66
2022-10-06T00:14:52.893Z,101377.59
2022-10-06T00:17:56.215Z,101382.84
2022-10-06T00:21:00.311Z,101383.13
2022-10-06T00:24:02.867Z,101382.84
2022-10-06T00:27:06.892Z,101376.50
2022-10-06T00:30:12.209Z,101389.22
2022-10-06T00:33:17.904Z,101385.06
2022-10-06T00:36:21.244Z,101384.50
2022-10-06T00:39:23.788Z,101395.59
2022-10-06T00:42:30.623Z,101405.00
2022-10-06T00:45:37.786Z,101399.78
2022-10-06T00:48:42.116Z,101395.91
2022-10-06T00:51:48.889Z,101406.72
2022-10-06T00:54:52.286Z,101405.69
2022-10-06T00:57:56.867Z,101412.63
2022-10-06T01:01:00.534Z,101411.22
2022-10-06T01:04:10.429Z,101410.44
2022-10-06T01:07:13.145Z,101419.00
2022-10-06T01:10:15.881Z,101423.16
2022-10-06T01:13:20.414Z,101427.84
2022-10-06T01:16:26.984Z,101427.03
2022-10-06T01:19:41.982Z,101435.31
2022-10-06T01:22:48.520Z,101436.44
2022-10-06T01:25:51.649Z,101427.59
2022-10-06T01:28:54.453Z,101430.63
2022-10-06T01:31:57.203Z,101420.38
2022-10-06T01:34:59.773Z,101432.81
2022-10-06T01:38:03.831Z,101437.47
2022-10-06T01:41:06.830Z,101433.88
2022-10-06T01:44:09.367Z,101442.97
2022-10-06T01:47:12.077Z,101441.06
2022-10-06T01:50:14.896Z,101437.41
2022-10-06T01:53:19.190Z,101446.50
2022-10-06T01:56:22.046Z,101446.47
2022-10-06T01:59:25.447Z,101443.44
2022-10-06T02:02:31.741Z,101439.00
2022-10-06T02:05:34.432Z,101436.19
2022-10-06T02:08:38.633Z,101443.91
2022-10-06T02:11:41.232Z,101441.41
2022-10-06T02:14:44.191Z,101447.22
2022-10-06T02:17:46.804Z,101448.03
2022-10-06T02:20:49.537Z,101452.72
2022-10-06T02:23:53.556Z,101455.75
2022-10-06T02:26:56.085Z,101460.19
2022-10-06T02:29:58.777Z,101459.03
2022-10-06T02:33:01.331Z,101452.66
2022-10-06T02:36:04.616Z,101460.13
2022-10-06T02:39:08.506Z,101472.56
2022-10-06T02:42:11.264Z,101467.66
2022-10-06T02:45:13.998Z,101473.47
2022-10-06T02:48:16.536Z,101477.06
2022-10-06T02:51:21.193Z,101489.81
2022-10-06T02:54:25.084Z,101481.59
2022-10-06T02:57:27.783Z,101486.03
2022-10-06T03:00:30.551Z,101498.56
2022-10-06T03:03:34.921Z,101504.59
2022-10-06T03:06:37.654Z,101505.47
2022-10-06T03:09:41.586Z,101520.97
2022-10-06T03:12:44.271Z,101516.53
2022-10-06T03:15:47.024Z,101526.50
2022-10-06T03:18:51.258Z,101538.41
2022-10-06T03:21:53.932Z,101545.31
2022-10-06T03:24:58.085Z,101556.66
2022-10-06T03:28:01.042Z,101550.00
2022-10-06T03:31:10.069Z,101562.16
2022-10-06T03:34:13.526Z,101572.38
2022-10-06T03:37:16.228Z,101595.09
2022-10-06T03:40:20.301Z,101592.66
2022-10-06T03:43:22.850Z,101587.91
2022-10-06T03:46:27.718Z,101595.84
2022-10-06T03:49:30.318Z,101590.06
2022-10-06T03:52:33.037Z,101610.81
2022-10-06T03:55:37.092Z,101614.44
2022-10-06T03:58:41.576Z,101619.97
2022-10-06T04:01:46.117Z,101630.47
2022-10-06T04:04:48.694Z,101638.22
2022-10-06T04:07:51.234Z,101658.72
2022-10-06T04:10:55.160Z,101655.94
2022-10-06T04:14:00.544Z,101658.22
2022-10-06T04:17:03.160Z,101672.03
2022-10-06T04:20:06.456Z,101675.34
2022-10-06T04:23:10.096Z,101664.81
2022-10-06T04:26:16.392Z,101662.03
2022-10-06T04:29:19.210Z,101671.78
2022-10-06T04:32:21.757Z,101674.44
2022-10-06T04:35:24.551Z,101682.75
2022-10-06T04:38:29.390Z,101698.16
2022-10-06T04:41:35.028Z,101718.06
2022-10-06T04:44:37.858Z,101720.31
2022-10-06T04:47:41.111Z,101711.56
2022-10-06T04:50:43.833Z,101718.97
2022-10-06T04:53:46.702Z,101720.63
2022-10-06T04:56:50.778Z,101733.50
2022-10-06T05:00:14.758Z,101741.00
2022-10-06T05:03:17.699Z,101750.41
2022-10-06T05:06:22.761Z,101747.59
2022-10-06T05:09:25.322Z,101754.22
2022-10-06T05:12:31.375Z,101773.31
2022-10-06T05:15:33.944Z,101778.22
2022-10-06T05:18:37.082Z,101781.69
2022-10-06T05:21:39.805Z,101794.31
2022-10-06T05:24:42.558Z,101805.13
2022-10-06T05:27:46.473Z,101818.38
2022-10-06T05:31:00.181Z,101820.31
2022-10-06T05:34:02.974Z,101828.22
2022-10-06T05:37:05.544Z,101838.50
2022-10-06T05:40:09.007Z,101842.28
2022-10-06T05:43:12.929Z,101853.03
2022-10-06T05:46:20.411Z,101867.25
2022-10-06T05:49:23.080Z,101883.00
2022-10-06T05:52:25.770Z,101884.97
2022-10-06T05:55:28.332Z,101906.63
2022-10-06T05:58:32.572Z,101905.09
2022-10-06T06:01:37.107Z,101913.47
2022-10-06T06:04:39.771Z,101924.91
2022-10-06T06:07:42.448Z,101932.66
2022-10-06T06:10:45.005Z,101941.19
2022-10-06T06:13:49.028Z,101951.16
2022-10-06T06:16:50.623Z,101949.53
2022-10-06T06:19:53.353Z,101974.91
2022-10-06T06:22:55.927Z,101974.91
2022-10-06T06:26:02.470Z,101981.84
2022-10-06T06:29:07.066Z,101979.88
2022-10-06T06:32:09.934Z,102003.88
2022-10-06T06:35:12.850Z,101995.16
2022-10-06T06:38:15.519Z,101999.50
2022-10-06T06:41:20.239Z,102024.56
2022-10-06T06:44:24.982Z,102016.88
2022-10-06T06:47:27.541Z,102028.09
2022-10-06T06:50:30.235Z,102035.03
2022-10-06T06:53:33.104Z,102037.41
2022-10-06T06:56:36.521Z,102038.06
2022-10-06T06:59:40.407Z,102056.31
2022-10-06T07:02:43.146Z,102058.69
2022-10-06T07:05:46.754Z,102065.75
2022-10-06T07:08:50.561Z,102072.53
2022-10-06T07:11:53.127Z,102078.06
2022-10-06T07:15:14.701Z,102084.78
2022-10-06T07:18:34.976Z,102096.19
2022-10-06T07:21:55.209Z,102087.81
2022-10-06T07:25:11.464Z,102101.19
2022-10-06T07:28:17.093Z,102105.59
2022-10-06T07:31:21.302Z,102114.28
2022-10-06T07:34:30.252Z,102129.34
2022-10-06T07:37:35.222Z,102129.59
2022-10-06T07:40:42.737Z,102118.47
2022-10-06T07:43:58.250Z,102126.28
2022-10-06T07:47:02.488Z,102134.47
2022-10-06T07:50:05.888Z,102148.84
2022-10-06T07:53:09.780Z,102145.31
2022-10-06T07:56:15.756Z,102148.84
2022-10-06T07:59:30.057Z,102160.13
2022-10-06T08:02:35.824Z,102169.31
2022-10-06T08:05:40.224Z,102168.13
2022-10-06T08:08:44.004Z,102186.31
2022-10-06T08:11:48.907Z,102182.00
2022-10-06T08:14:51.785Z,102199.47
2022-10-06T08:17:56.146Z,102195.59
2022-10-06T08:20:59.514Z,102199.84
2022-10-06T08:24:02.932Z,102211.75
2022-10-06T08:27:05.632Z,102211.25
2022-10-06T08:30:09.151Z,102220.88
2022-10-06T08:33:13.196Z,102221.09
2022-10-06T08:36:18.486Z,102231.25
2022-10-06T08:39:21.214Z,102238.75
2022-10-06T08:42:30.418Z,102241.28
2022-10-06T08:45:38.737Z,102238.34
2022-10-06T08:48:43.488Z,102251.97
2022-10-06T08:51:56.595Z,102233.97
2022-10-06T08:55:08.558Z,102252.97
2022-10-06T08:58:33.259Z,102242.53
2022-10-06T09:01:42.584Z,102252.69
2022-10-06T09:04:48.617Z,102258.69
2022-10-06T09:08:05.297Z,102258.13
2022-10-06T09:11:35.833Z,102254.88
2022-10-06T09:14:43.262Z,102269.44
2022-10-06T09:17:51.040Z,102276.06
2022-10-06T09:20:58.282Z,102272.50
2022-10-06T09:24:07.025Z,102276.84
2022-10-06T09:27:18.503Z,102273.53
2022-10-06T09:30:21.328Z,102283.84
2022-10-06T09:33:25.504Z,102293.56
2022-10-06T09:36:29.817Z,102295.50
2022-10-06T09:39:36.742Z,102304.53
2022-10-06T09:42:45.586Z,102298.59
2022-10-06T09:45:48.239Z,102303.63
2022-10-06T09:49:07.293Z,102307.28
2022-10-06T09:52:16.339Z,102315.34
2022-10-06T09:55:23.043Z,102321.38
2022-10-06T09:58:31.402Z,102319.41
2022-10-06T10:01:34.191Z,102322.88
2022-10-06T10:04:41.431Z,102324.84
2022-10-06T10:07:48.223Z,102329.97
2022-10-06T10:10:51.780Z,102321.47
2022-10-06T10:13:54.722Z,102334.81
2022-10-06T10:16:57.335Z,102340.41
2022-10-06T10:20:02.820Z,102333.28
2022-10-06T10:23:20.400Z,102331.13
2022-10-06T10:26:32.779Z,102339.75
2022-10-06T10:29:51.907Z,102345.97
2022-10-06T10:33:01.531Z,102335.44
2022-10-06T10:36:07.718Z,102342.25
2022-10-06T10:39:19.503Z,102347.78
2022-10-06T10:42:30.814Z,102350.38
2022-10-06T10:45:35.131Z,102355.72
2022-10-06T10:48:43.160Z,102350.69
2022-10-06T10:51:50.912Z,102362.13
2022-10-06T10:55:18.650Z,102361.78
2022-10-06T10:58:28.958Z,102359.44
2022-10-06T11:01:37.358Z,102363.16
2022-10-06T11:04:44.446Z,102366.13
2022-10-06T11:07:54.617Z,102371.06
2022-10-06T11:11:01.468Z,102370.31
2022-10-06T11:14:10.000Z,102362.19
2022-10-06T11:17:25.168Z,102369.81
2022-10-06T11:20:44.012Z,102362.34
2022-10-06T11:23:54.971Z,102367.00
2022-10-06T11:27:19.028Z,102377.34
2022-10-06T11:30:26.331Z,102372.91
2022-10-06T11:33:35.870Z,102377.53
2022-10-06T11:36:47.041Z,102379.66
2022-10-06T11:39:59.131Z,102375.13
2022-10-06T11:43:10.560Z,102377.63
2022-10-06T11:46:31.122Z,102378.81
2022-10-06T11:49:53.416Z,102386.22
2022-10-06T11:52:56.316Z,102390.91
2022-10-06T11:56:32.518Z,102381.66
2022-10-06T11:59:36.439Z,102388.66
2022-10-06T12:02:41.190Z,102387.78
2022-10-06T12:05:59.184Z,102390.72
2022-10-06T12:09:01.902Z,102399.41
2022-10-06T12:13:05.459Z,102402.09
2022-10-06T12:19:56.425Z,102404.25
2022-10-06T12:23:05.529Z,102403.06
2022-10-06T12:26:21.619Z,102399.81
2022-10-06T12:29:43.686Z,102414.00
2022-10-06T12:32:52.538Z,102413.53
2022-10-06T12:36:02.590Z,102404.84
2022-10-06T12:39:21.482Z,102402.63
2022-10-06T12:42:29.361Z,102409.59
2022-10-06T12:45:32.197Z,102405.91
2022-10-06T12:48:45.232Z,102403.72
2022-10-06T12:51:48.528Z,102411.41
2022-10-06T12:55:04.694Z,102408.47
2022-10-06T12:58:16.977Z,102411.66
2022-10-06T13:01:19.797Z,102426.84
2022-10-06T13:04:35.528Z,102418.09
2022-10-06T13:07:56.972Z,102415.53
2022-10-06T13:11:13.653Z,102422.56
2022-10-06T13:14:17.254Z,102418.38
2022-10-06T13:17:19.990Z,102426.13
2022-10-06T13:20:35.563Z,102432.03
2022-10-06T13:23:40.310Z,102420.84
2022-10-06T13:26:43.104Z,102424.22
2022-10-06T13:29:45.684Z,102424.50
2022-10-06T13:32:53.135Z,102432.88
2022-10-06T13:35:59.342Z,102430.34
2022-10-06T13:39:05.003Z,102426.41
2022-10-06T13:42:11.657Z,102431.97
2022-10-06T13:45:16.130Z,102444.84
2022-10-06T13:48:22.364Z,102427.16
2022-10-06T13:51:30.549Z,102433.56
2022-10-06T13:54:42.141Z,102423.28
2022-10-06T13:57:46.326Z,102423.84
2022-10-06T14:00:56.002Z,102424.97
2022-10-06T14:04:12.810Z,102423.56
2022-10-06T14:07:18.288Z,102436.56
2022-10-06T14:13:39.143Z,102441.00
2022-10-06T14:16:48.583Z,102443.19
2022-10-06T14:19:52.095Z,102447.41
2022-10-06T14:22:56.055Z,102451.25
2022-10-06T14:25:58.779Z,102443.22
2022-10-06T14:29:01.709Z,102446.66
2022-10-06T14:32:08.985Z,102446.94
2022-10-06T14:35:12.669Z,102446.69
2022-10-06T14:38:16.702Z,102445.50
2022-10-06T14:41:24.527Z,102454.63
2022-10-06T14:44:27.136Z,102450.97
2022-10-06T14:47:30.045Z,102462.25
2022-10-06T14:50:34.316Z,102457.25
2022-10-06T14:53:39.460Z,102459.53
2022-10-06T14:56:43.098Z,102455.72
2022-10-06T14:59:45.741Z,102449.13
2022-10-06T15:02:48.909Z,102458.75
2022-10-06T15:06:09.297Z,102451.59
2022-10-06T15:09:13.435Z,102457.38
2022-10-06T15:12:16.129Z,102459.25
2022-10-06T15:15:18.798Z,102462.16
2022-10-06T15:18:21.560Z,102461.66
2022-10-06T15:21:24.306Z,102455.91
2022-10-06T15:24:28.368Z,102471.09
2022-10-06T15:27:48.497Z,102468.75
2022-10-06T15:30:51.087Z,102471.34
2022-10-06T15:33:54.887Z,102474.16
2022-10-06T15:36:58.697Z,102467.94
2022-10-06T15:40:05.485Z,102479.38
2022-10-06T15:43:08.199Z,102473.25
2022-10-06T15:46:13.046Z,102477.56
2022-10-06T15:49:17.380Z,102465.41
2022-10-06T15:52:22.901Z,102476.03
2022-10-06T15:55:26.835Z,102475.03
2022-10-06T15:58:29.399Z,102476.00
2022-10-06T16:01:43.512Z,102471.72
2022-10-06T16:04:57.144Z,102486.63
2022-10-06T16:07:59.813Z,102487.53
2022-10-06T16:11:04.174Z,102493.22
2022-10-06T16:14:07.969Z,102487.88
2022-10-06T16:17:11.891Z,102495.34
2022-10-06T16:20:16.628Z,102492.34
2022-10-06T16:23:20.472Z,102487.72
2022-10-06T16:26:26.234Z,102483.78
2022-10-06T16:29:29.431Z,102498.91
2022-10-06T16:32:32.033Z,102504.56
2022-10-06T16:35:34.706Z,102496.19
2022-10-06T16:38:37.291Z,102505.16
2022-10-06T16:41:41.497Z,102511.94
2022-10-06T16:44:44.201Z,102506.00
2022-10-06T16:47:46.806Z,102512.50
2022-10-06T16:50:49.495Z,102522.91
2022-10-06T16:53:54.783Z,102528.47
2022-10-06T16:57:01.575Z,102520.56
2022-10-06T17:00:05.807Z,102531.41
2022-10-06T17:03:08.386Z,102532.53
2022-10-06T17:06:14.249Z,102537.25
2022-10-06T17:09:18.842Z,102543.66
2022-10-06T17:12:22.740Z,102545.59
2022-10-06T17:15:26.184Z,102539.81
2022-10-06T17:18:31.192Z,102547.38
2022-10-06T17:21:45.594Z,102544.75
2022-10-06T17:24:49.754Z,102543.44
2022-10-06T17:27:53.645Z,102548.69
2022-10-06T17:30:59.331Z,102549.75
2022-10-06T17:34:03.225Z,102545.69
2022-10-06T17:37:05.768Z,102548.78
2022-10-06T17:40:09.124Z,102547.19
2022-10-06T17:43:13.012Z,102549.72
2022-10-06T17:46:19.033Z,102549.16
2022-10-06T17:49:24.003Z,102552.03
2022-10-06T17:52:26.818Z,102557.88
2022-10-06T17:55:29.803Z,102562.56
2022-10-06T17:58:35.201Z,102554.84
2022-10-06T18:01:38.404Z,102555.63
2022-10-06T18:04:41.120Z,102565.06
2022-10-06T18:07:43.649Z,102563.47
2022-10-06T18:11:06.199Z,102568.44
2022-10-06T18:14:12.228Z,102562.19
2022-10-06T18:17:15.210Z,102569.44
2022-10-06T18:20:18.063Z,102567.66
2022-10-06T18:23:20.592Z,102562.84
2022-10-06T18:26:23.280Z,102568.47
2022-10-06T18:29:30.180Z,102560.09
2022-10-06T18:36:14.663Z,102572.94
2022-10-06T18:39:18.196Z,102571.28
2022-10-06T18:42:20.926Z,102570.03
2022-10-06T18:45:42.746Z,102575.22
2022-10-06T18:48:58.654Z,102569.94
2022-10-06T18:52:01.592Z,102575.06
2022-10-06T18:55:04.348Z,102561.34
2022-10-06T18:58:07.063Z,102566.91
2022-10-06T19:01:12.479Z,102572.06
2022-10-06T19:04:18.384Z,102581.41
2022-10-06T19:07:20.961Z,102577.53
2022-10-06T19:10:23.503Z,102571.78
2022-10-06T19:13:26.080Z,102575.00
2022-10-06T19:16:29.996Z,102588.56
2022-10-06T19:19:34.080Z,102584.19
2022-10-06T19:22:37.003Z,102579.97
2022-10-06T19:25:39.564Z,102578.91
2022-10-06T19:28:42.406Z,102579.19
2022-10-06T19:31:47.888Z,102588.28
2022-10-06T19:34:50.566Z,102591.50
2022-10-06T19:37:53.256Z,102594.69
2022-10-06T19:41:16.484Z,102584.94
2022-10-06T19:44:18.267Z,102588.97
2022-10-06T19:47:22.177Z,102594.31
2022-10-06T19:50:25.261Z,102604.88
2022-10-06T19:53:27.989Z,102609.75
2022-10-06T19:56:32.993Z,102601.50
2022-10-06T19:59:36.761Z,102607.22
2022-10-06T20:02:42.872Z,102607.44
2022-10-06T20:05:46.195Z,102608.09
2022-10-06T20:08:48.866Z,102613.19
2022-10-06T20:11:52.553Z,102618.25
2022-10-06T20:14:55.250Z,102615.72
2022-10-06T20:17:59.125Z,102618.47
2022-10-06T20:21:01.804Z,102610.25
2022-10-06T20:24:07.104Z,102617.00
2022-10-06T20:27:10.177Z,102619.34
2022-10-06T20:30:13.449Z,102619.34
2022-10-06T20:33:17.525Z,102612.56
2022-10-06T20:36:20.645Z,102623.59
2022-10-06T20:39:40.777Z,102624.63
2022-10-06T20:42:47.162Z,102624.41
2022-10-06T20:45:50.208Z,102632.88
2022-10-06T20:48:54.152Z,102618.50
2022-10-06T20:51:56.850Z,102623.59
2022-10-06T20:54:59.401Z,102626.75
2022-10-06T20:58:02.075Z,102628.22
2022-10-06T21:01:06.434Z,102623.38
2022-10-06T21:04:10.716Z,102626.13
2022-10-06T21:07:13.463Z,102633.94
2022-10-06T21:10:16.288Z,102622.94
2022-10-06T21:13:19.015Z,102625.06
2022-10-06T21:16:24.231Z,102626.97
2022-10-06T21:19:29.883Z,102621.66
2022-10-06T21:22:32.601Z,102616.59
2022-10-06T21:25:37.749Z,102615.34
2022-10-06T21:28:41.252Z,102614.91
2022-10-06T21:31:44.639Z,102606.66
2022-10-06T21:34:48.690Z,102611.72
2022-10-06T21:37:51.400Z,102599.06
2022-10-06T21:40:54.414Z,102598.44
2022-10-06T21:43:58.867Z,102616.59
2022-10-06T21:47:02.674Z,102602.41
2022-10-06T21:50:07.701Z,102609.38
2022-10-06T21:53:10.497Z,102600.31
2022-10-06T21:56:13.845Z,102608.34
2022-10-06T21:59:16.686Z,102620.09
2022-10-06T22:02:19.520Z,102614.84
2022-10-06T22:05:23.475Z,102610.19
2022-10-06T22:08:26.276Z,102605.56
2022-10-06T22:11:31.061Z,102596.66
2022-10-06T22:14:33.894Z,102607.00
2022-10-06T22:17:36.887Z,102597.94
2022-10-06T22:20:40.846Z,102595.63
2022-10-06T22:23:45.165Z,102595.16
2022-10-06T22:26:48.763Z,102601.06
2022-10-06T22:29:51.559Z,102589.88
2022-10-06T22:32:54.718Z,102594.28
2022-10-06T22:35:58.742Z,102594.47
2022-10-06T22:39:02.226Z,102590.47
2022-10-06T22:42:05.189Z,102591.47
2022-10-06T22:45:08.322Z,102596.75
2022-10-06T22:48:11.048Z,102589.97
2022-10-06T22:51:14.978Z,102583.41
2022-10-06T22:54:20.034Z,102582.38
2022-10-06T22:57:22.633Z,102579.84
2022-10-06T23:00:27.948Z,102576.47
2022-10-06T23:03:30.939Z,102580.25
2022-10-06T23:06:35.388Z,102566.34
2022-10-06T23:09:38.107Z,102573.69
2022-10-06T23:12:40.884Z,102558.50
2022-10-06T23:15:44.241Z,102565.25
2022-10-06T23:18:47.347Z,102569.44
2022-10-06T23:21:51.396Z,102563.50
2022-10-06T23:24:54.486Z,102557.81
2022-10-06T23:27:57.138Z,102570.88
2022-10-06T23:30:59.975Z,102572.13
2022-10-06T23:34:02.569Z,102568.72
2022-10-06T23:37:06.666Z,102559.47
2022-10-06T23:40:10.320Z,102564.47
2022-10-06T23:43:12.932Z,102565.53
2022-10-06T23:46:16.023Z,102558.56
2022-10-06T23:49:18.670Z,102564.66
2022-10-06T23:52:22.713Z,102562.13
2022-10-06T23:55:25.746Z,102557.69
2022-10-06T23:58:28.792Z,102562.28
